createdAt,value
2019-01-13T00:01:59.068Z,6.67
2019-01-13T00:04:29.786Z,6.57
2019-01-13T00:07:02.552Z,9.43
2019-01-13T00:09:32.957Z,8.57
2019-01-13T00:12:02.989Z,7.90
2019-01-13T00:14:33.788Z,5.00
2019-01-13T00:17:05.236Z,5.35
2019-01-13T00:19:35.581Z,7.17
2019-01-13T00:22:07.681Z,6.20
2019-01-13T00:24:38.053Z,8.00
2019-01-13T00:27:10.848Z,7.80
2019-01-13T00:29:41.669Z,8.20
2019-01-13T00:32:12.597Z,10.63
2019-01-13T00:34:43.583Z,7.90
2019-01-13T00:37:14.556Z,4.97
2019-01-13T00:39:44.411Z,6.93
2019-01-13T00:42:14.746Z,5.83
2019-01-13T00:44:44.593Z,6.13
2019-01-13T00:47:15.105Z,7.40
2019-01-13T00:49:46.841Z,7.97
2019-01-13T00:52:18.936Z,9.17
2019-01-13T00:54:49.787Z,4.93
2019-01-13T00:57:20.661Z,6.03
2019-01-13T00:59:51.089Z,6.80
2019-01-13T01:02:22.202Z,7.93
2019-01-13T01:04:53.429Z,10.73
2019-01-13T01:07:24.404Z,12.37
2019-01-13T01:09:54.785Z,9.10
2019-01-13T01:12:28.686Z,9.33
2019-01-13T01:14:59.771Z,8.20
2019-01-13T01:17:32.265Z,6.47
2019-01-13T01:20:04.559Z,5.07
2019-01-13T01:22:34.929Z,8.17
2019-01-13T01:25:06.969Z,5.07
2019-01-13T01:27:37.297Z,7.50
2019-01-13T01:30:09.529Z,6.53
2019-01-13T01:32:40.759Z,7.20
2019-01-13T01:35:11.269Z,6.40
2019-01-13T01:37:42.308Z,5.10
2019-01-13T01:40:13.898Z,7.97
2019-01-13T01:42:45.045Z,5.57
2019-01-13T01:45:19.524Z,9.83
2019-01-13T01:47:50.459Z,7.72
2019-01-13T01:50:21.692Z,6.93
2019-01-13T01:53:02.322Z,5.53
2019-01-13T01:55:33.336Z,7.97
2019-01-13T01:58:05.236Z,5.40
2019-01-13T02:00:40.761Z,4.33
2019-01-13T02:03:09.734Z,5.93
2019-01-13T02:05:40.149Z,5.53
2019-01-13T02:08:12.052Z,5.77
2019-01-13T02:10:41.862Z,3.77
2019-01-13T02:13:12.820Z,5.27
2019-01-13T02:15:43.497Z,8.08
2019-01-13T02:18:13.473Z,10.05
2019-01-13T02:20:46.301Z,6.22
2019-01-13T02:23:17.168Z,5.57
2019-01-13T02:25:50.181Z,7.37
2019-01-13T02:28:23.383Z,5.10
2019-01-13T02:30:54.393Z,5.93
2019-01-13T02:33:25.619Z,7.63
2019-01-13T02:35:58.043Z,6.13
2019-01-13T02:38:29.336Z,5.20
2019-01-13T02:40:59.290Z,4.13
2019-01-13T02:43:30.815Z,4.97
2019-01-13T02:46:04.263Z,3.17
2019-01-13T02:48:34.633Z,5.80
2019-01-13T02:51:05.563Z,4.27
2019-01-13T02:53:37.499Z,3.27
2019-01-13T02:56:12.178Z,6.07
2019-01-13T02:58:43.193Z,3.52
2019-01-13T03:01:15.261Z,2.90
2019-01-13T03:03:46.755Z,4.23
2019-01-13T03:06:17.201Z,5.73
2019-01-13T03:08:48.668Z,3.67
2019-01-13T03:11:19.773Z,5.33
2019-01-13T03:13:51.768Z,3.33
2019-01-13T03:16:22.713Z,5.15
2019-01-13T03:18:53.713Z,5.25
2019-01-13T03:21:24.352Z,4.20
2019-01-13T03:23:54.745Z,4.33
2019-01-13T03:26:25.113Z,3.77
2019-01-13T03:28:55.637Z,3.60
2019-01-13T03:31:26.130Z,4.90
2019-01-13T03:33:56.637Z,4.83
2019-01-13T03:36:27.966Z,3.30
2019-01-13T03:38:59.312Z,4.03
2019-01-13T03:41:29.164Z,4.23
2019-01-13T03:44:01.045Z,4.37
2019-01-13T03:46:30.858Z,4.10
2019-01-13T03:49:02.571Z,4.53
2019-01-13T03:51:34.582Z,3.57
2019-01-13T03:54:06.922Z,4.40
2019-01-13T03:56:37.306Z,2.63
2019-01-13T03:59:09.275Z,3.08
2019-01-13T04:01:40.861Z,6.47
2019-01-13T04:04:11.729Z,9.60
2019-01-13T04:06:42.742Z,3.40
2019-01-13T04:09:13.759Z,9.47
2019-01-13T04:11:45.340Z,4.23
2019-01-13T04:14:16.246Z,2.60
2019-01-13T04:16:46.805Z,3.30
2019-01-13T04:19:18.769Z,4.17
2019-01-13T04:21:49.778Z,2.23
2019-01-13T04:24:20.674Z,3.23
2019-01-13T04:26:50.346Z,4.17
2019-01-13T04:29:21.274Z,6.67
2019-01-13T04:31:51.577Z,3.67
2019-01-13T04:34:22.775Z,4.50
2019-01-13T04:36:53.784Z,4.27
2019-01-13T04:39:24.859Z,2.97
2019-01-13T04:41:55.670Z,3.20
2019-01-13T04:44:26.084Z,6.27
2019-01-13T04:46:56.249Z,4.80
2019-01-13T04:49:27.898Z,4.30
2019-01-13T04:51:58.981Z,4.37
2019-01-13T04:54:29.881Z,3.93
2019-01-13T04:57:10.132Z,6.70
2019-01-13T04:59:41.049Z,5.40
2019-01-13T05:02:12.628Z,4.67
2019-01-13T05:04:42.949Z,7.80
2019-01-13T05:07:14.584Z,6.23
2019-01-13T05:09:44.969Z,4.27
2019-01-13T05:12:14.752Z,3.90
2019-01-13T05:14:45.126Z,3.30
2019-01-13T05:17:16.429Z,5.23
2019-01-13T05:19:57.117Z,5.07
2019-01-13T05:22:28.098Z,3.80
2019-01-13T05:24:59.593Z,3.50
2019-01-13T05:27:30.041Z,3.67
2019-01-13T05:30:00.411Z,3.63
2019-01-13T05:32:31.613Z,3.90
2019-01-13T05:35:03.060Z,6.43
2019-01-13T05:37:32.969Z,3.10
2019-01-13T05:40:02.888Z,2.93
2019-01-13T05:42:33.193Z,2.83
2019-01-13T05:45:03.923Z,2.25
2019-01-13T05:47:34.909Z,2.97
2019-01-13T05:50:05.664Z,3.67
2019-01-13T05:52:35.973Z,2.93
2019-01-13T05:55:08.345Z,2.37
2019-01-13T05:57:39.386Z,4.40
2019-01-13T06:00:11.349Z,3.23
2019-01-13T06:02:42.202Z,2.00
2019-01-13T06:05:13.161Z,5.17
2019-01-13T06:07:44.122Z,2.70
2019-01-13T06:10:14.481Z,2.77
2019-01-13T06:12:45.249Z,3.63
2019-01-13T06:15:17.274Z,2.20
2019-01-13T06:17:47.309Z,2.40
2019-01-13T06:20:19.155Z,1.90
2019-01-13T06:22:49.596Z,2.23
2019-01-13T06:25:19.563Z,3.83
2019-01-13T06:27:50.086Z,2.43
2019-01-13T06:30:22.000Z,5.03
2019-01-13T06:32:52.437Z,3.33
2019-01-13T06:35:23.741Z,3.30
2019-01-13T06:37:54.962Z,5.42
2019-01-13T06:40:25.810Z,1.93
2019-01-13T06:42:56.256Z,3.17
2019-01-13T06:45:27.295Z,2.53
2019-01-13T06:47:59.085Z,3.50
2019-01-13T06:50:29.386Z,3.57
2019-01-13T06:53:00.039Z,1.83
2019-01-13T06:55:30.465Z,2.40
2019-01-13T06:58:00.333Z,3.13
2019-01-13T07:00:31.923Z,1.70
2019-01-13T07:03:02.625Z,1.87
2019-01-13T07:05:33.737Z,3.50
2019-01-13T07:08:05.264Z,3.13
2019-01-13T07:10:36.316Z,2.57
2019-01-13T07:13:07.249Z,1.87
2019-01-13T07:15:37.701Z,1.97
2019-01-13T07:18:08.853Z,2.13
2019-01-13T07:20:40.215Z,3.03
2019-01-13T07:23:10.765Z,5.13
2019-01-13T07:25:42.088Z,2.33
2019-01-13T07:28:12.433Z,3.43
2019-01-13T07:30:42.565Z,3.37
2019-01-13T07:33:12.894Z,4.30
2019-01-13T07:35:44.403Z,2.07
2019-01-13T07:38:14.369Z,1.70
2019-01-13T07:40:45.342Z,3.83
2019-01-13T07:43:16.465Z,4.53
2019-01-13T07:45:47.220Z,1.93
2019-01-13T07:48:17.137Z,2.53
2019-01-13T07:50:50.592Z,4.63
2019-01-13T07:53:21.788Z,2.43
2019-01-13T07:55:52.184Z,3.47
2019-01-13T07:58:29.220Z,4.27
2019-01-13T08:00:59.365Z,3.30
2019-01-13T08:03:29.749Z,3.83
2019-01-13T08:06:02.529Z,5.37
2019-01-13T08:08:32.889Z,3.40
2019-01-13T08:11:03.808Z,7.67
2019-01-13T08:13:37.277Z,5.13
2019-01-13T08:16:10.247Z,6.93
2019-01-13T08:18:40.805Z,3.57
2019-01-13T08:21:10.829Z,3.00
2019-01-13T08:23:41.818Z,6.00
2019-01-13T08:26:12.093Z,2.77
2019-01-13T08:28:42.713Z,4.10
2019-01-13T08:31:15.228Z,4.27
2019-01-13T08:33:47.545Z,2.93
2019-01-13T08:36:17.914Z,4.87
2019-01-13T08:38:48.905Z,4.17
2019-01-13T08:41:19.892Z,4.67
2019-01-13T08:43:51.809Z,4.43
2019-01-13T08:46:22.941Z,4.83
2019-01-13T08:48:53.881Z,2.73
2019-01-13T08:51:25.087Z,6.00
2019-01-13T08:53:56.542Z,4.47
2019-01-13T08:56:26.293Z,6.57
2019-01-13T08:58:56.869Z,4.63
2019-01-13T09:01:28.844Z,3.73
2019-01-13T09:03:59.393Z,5.87
2019-01-13T09:06:31.366Z,3.77
2019-01-13T09:09:01.782Z,2.90
2019-01-13T09:11:33.175Z,5.40
2019-01-13T09:14:03.929Z,3.17
2019-01-13T09:16:34.880Z,3.77
2019-01-13T09:19:05.344Z,6.63
2019-01-13T09:21:37.242Z,4.40
2019-01-13T09:24:09.113Z,9.50
2019-01-13T09:26:39.926Z,6.05
2019-01-13T09:29:10.677Z,5.03
2019-01-13T09:31:40.589Z,5.43
2019-01-13T09:34:12.569Z,7.45
2019-01-13T09:36:43.498Z,4.67
2019-01-13T09:39:15.871Z,7.20
2019-01-13T09:41:46.429Z,5.20
2019-01-13T09:44:16.887Z,4.77
2019-01-13T09:46:47.929Z,4.22
2019-01-13T09:49:19.281Z,3.70
2019-01-13T09:51:49.873Z,2.92
2019-01-13T09:56:56.149Z,3.90
2019-01-13T09:59:26.117Z,5.53
2019-01-13T10:01:56.240Z,5.28
2019-01-13T10:04:26.393Z,3.90
2019-01-13T10:06:59.273Z,5.30
2019-01-13T10:09:30.146Z,6.30
2019-01-13T10:12:11.451Z,6.07
2019-01-13T10:14:42.802Z,4.07
2019-01-13T10:17:13.435Z,5.87
2019-01-13T10:19:43.019Z,11.33
2019-01-13T10:22:12.940Z,4.73
2019-01-13T10:24:42.752Z,8.50
2019-01-13T10:27:13.213Z,21.90
2019-01-13T10:29:43.737Z,7.90
2019-01-13T10:32:13.949Z,5.53
2019-01-13T10:34:43.953Z,4.80
2019-01-13T10:37:13.741Z,7.83
2019-01-13T10:39:43.505Z,6.97
2019-01-13T10:42:13.104Z,4.17
2019-01-13T10:44:43.485Z,4.57
2019-01-13T10:47:13.253Z,6.17
2019-01-13T10:49:43.633Z,4.37
2019-01-13T10:52:13.773Z,11.40
2019-01-13T10:54:43.500Z,10.77
2019-01-13T10:57:13.369Z,8.97
2019-01-13T10:59:43.078Z,8.43
2019-01-13T11:02:12.788Z,6.28
2019-01-13T11:04:42.603Z,9.77
2019-01-13T11:07:13.673Z,11.10
2019-01-13T11:09:43.641Z,10.13
2019-01-13T11:12:14.551Z,9.03
2019-01-13T11:14:46.397Z,10.63
2019-01-13T11:17:16.682Z,7.00
2019-01-13T11:19:46.182Z,10.80
2019-01-13T11:22:15.791Z,7.97
2019-01-13T11:24:46.049Z,10.97
2019-01-13T11:27:15.693Z,9.43
2019-01-13T11:29:46.109Z,7.53
2019-01-13T11:32:16.423Z,7.80
2019-01-13T11:34:46.937Z,6.30
2019-01-13T11:37:18.933Z,5.60
2019-01-13T11:39:48.905Z,9.37
2019-01-13T11:42:19.648Z,9.73
2019-01-13T11:44:49.689Z,7.37
2019-01-13T11:47:20.629Z,6.27
2019-01-13T11:49:50.969Z,10.07
2019-01-13T11:52:21.224Z,9.67
2019-01-13T11:54:52.198Z,6.23
2019-01-13T11:57:22.577Z,8.27
2019-01-13T11:59:52.245Z,6.27
2019-01-13T12:02:22.782Z,6.80
2019-01-13T12:04:52.604Z,7.43
2019-01-13T12:07:25.136Z,9.00
2019-01-13T12:09:55.107Z,7.43
2019-01-13T12:12:26.248Z,7.27
2019-01-13T12:14:56.363Z,6.23
2019-01-13T12:17:26.141Z,8.27
2019-01-13T12:19:57.068Z,7.57
2019-01-13T12:22:26.740Z,8.97
2019-01-13T12:24:57.649Z,8.43
2019-01-13T12:27:28.676Z,5.70
2019-01-13T12:29:58.612Z,8.33
2019-01-13T12:32:28.957Z,7.23
2019-01-13T12:34:59.237Z,8.97
2019-01-13T12:37:29.657Z,5.83
2019-01-13T12:39:59.541Z,6.63
2019-01-13T12:42:30.057Z,7.13
2019-01-13T12:45:03.388Z,6.73
2019-01-13T12:47:34.618Z,7.13
2019-01-13T12:50:05.599Z,8.03
2019-01-13T12:52:36.061Z,5.35
2019-01-13T12:55:07.073Z,9.50
2019-01-13T12:57:37.593Z,6.40
2019-01-13T13:00:07.747Z,6.63
2019-01-13T13:02:39.245Z,6.87
2019-01-13T13:05:10.201Z,6.30
2019-01-13T13:07:40.201Z,7.63
2019-01-13T13:10:17.677Z,9.30
2019-01-13T13:12:48.346Z,7.00
2019-01-13T13:15:19.100Z,5.40
2019-01-13T13:17:49.464Z,7.47
2019-01-13T13:20:19.525Z,8.68
2019-01-13T13:22:50.105Z,8.20
2019-01-13T13:25:20.947Z,7.60
2019-01-13T13:27:51.893Z,6.20
2019-01-13T13:30:22.641Z,9.47
2019-01-13T13:32:53.061Z,6.97
2019-01-13T13:35:23.425Z,8.30
2019-01-13T13:37:54.169Z,6.58
2019-01-13T13:40:24.249Z,8.70
2019-01-13T13:42:54.113Z,10.63
2019-01-13T13:45:23.961Z,8.80
2019-01-13T13:47:53.913Z,6.87
2019-01-13T13:50:24.672Z,9.77
2019-01-13T13:52:54.853Z,8.15
2019-01-13T13:55:24.727Z,6.97
2019-01-13T13:57:55.355Z,5.93
2019-01-13T14:00:30.025Z,6.67
2019-01-13T14:03:02.765Z,7.83
2019-01-13T14:05:32.680Z,8.23
2019-01-13T14:08:02.937Z,10.13
2019-01-13T14:10:34.796Z,8.07
2019-01-13T14:13:04.496Z,7.93
2019-01-13T14:15:35.401Z,7.77
2019-01-13T14:18:06.012Z,6.37
2019-01-13T14:20:35.864Z,6.80
2019-01-13T14:23:05.452Z,11.57
2019-01-13T14:25:35.163Z,9.63
2019-01-13T14:28:06.225Z,8.83
2019-01-13T14:30:36.173Z,10.20
2019-01-13T14:33:06.849Z,9.70
2019-01-13T14:35:37.096Z,9.60
2019-01-13T14:38:07.533Z,7.73
2019-01-13T14:40:37.989Z,10.70
2019-01-13T14:43:07.618Z,11.10
2019-01-13T14:45:37.373Z,7.90
2019-01-13T14:48:08.186Z,8.60
2019-01-13T14:50:39.800Z,7.43
2019-01-13T14:53:09.838Z,10.23
2019-01-13T14:55:39.862Z,10.27
2019-01-13T14:58:10.057Z,8.87
2019-01-13T15:00:40.475Z,6.23
2019-01-13T15:03:13.367Z,13.57
2019-01-13T15:05:43.315Z,6.40
2019-01-13T15:08:12.932Z,10.87
2019-01-13T15:10:42.877Z,6.97
2019-01-13T15:13:13.382Z,13.03
2019-01-13T15:15:44.517Z,10.47
2019-01-13T15:18:15.195Z,10.47
2019-01-13T15:20:44.966Z,10.27
2019-01-13T15:23:16.281Z,9.50
2019-01-13T15:25:46.492Z,8.90
2019-01-13T15:28:16.374Z,8.07
2019-01-13T15:30:46.697Z,6.70
2019-01-13T15:33:16.617Z,10.43
2019-01-13T15:35:46.541Z,8.27
2019-01-13T15:38:16.765Z,9.67
2019-01-13T15:40:47.125Z,13.47
2019-01-13T15:43:28.056Z,8.07
2019-01-13T15:45:58.693Z,10.77
2019-01-13T15:48:28.453Z,10.27
2019-01-13T15:50:58.633Z,10.47
2019-01-13T15:53:29.034Z,9.80
2019-01-13T15:56:00.465Z,8.80
2019-01-13T15:58:30.841Z,10.40
2019-01-13T16:01:01.085Z,10.83
2019-01-13T16:03:31.473Z,13.67
2019-01-13T16:06:02.745Z,7.87
2019-01-13T16:08:32.464Z,8.23
2019-01-13T16:11:03.701Z,8.97
2019-01-13T16:13:33.320Z,11.10
2019-01-13T16:16:03.144Z,9.60
2019-01-13T16:18:33.620Z,8.98
2019-01-13T16:21:04.893Z,14.30
2019-01-13T16:23:35.505Z,9.67
2019-01-13T16:26:05.349Z,10.07
2019-01-13T16:28:35.604Z,8.23
2019-01-13T16:31:05.589Z,10.70
2019-01-13T16:33:35.737Z,10.57
2019-01-13T16:36:16.157Z,8.50
2019-01-13T16:38:46.532Z,10.60
2019-01-13T16:41:16.957Z,13.45
2019-01-13T16:43:47.253Z,9.47
2019-01-13T16:46:19.776Z,11.23
2019-01-13T16:48:50.335Z,10.57
2019-01-13T16:51:20.517Z,9.20
2019-01-13T16:53:51.038Z,12.67
2019-01-13T16:56:20.904Z,9.57
2019-01-13T16:58:50.133Z,10.03
2019-01-13T17:01:19.892Z,12.97
2019-01-13T17:03:50.119Z,8.48
2019-01-13T17:06:20.109Z,7.33
2019-01-13T17:08:50.572Z,13.97
2019-01-13T17:11:20.341Z,6.83
2019-01-13T17:13:50.625Z,9.80
2019-01-13T17:16:20.950Z,9.80
2019-01-13T17:18:50.769Z,12.55
2019-01-13T17:21:20.665Z,11.33
2019-01-13T17:23:51.081Z,10.43
2019-01-13T17:26:22.144Z,11.70
2019-01-13T17:28:51.981Z,11.30
2019-01-13T17:31:22.621Z,12.03
2019-01-13T17:33:52.877Z,10.43
2019-01-13T17:36:23.156Z,11.47
2019-01-13T17:38:53.632Z,9.13
2019-01-13T17:41:23.449Z,11.80
2019-01-13T17:43:53.485Z,10.48
2019-01-13T17:46:23.655Z,10.60
2019-01-13T17:48:53.304Z,10.33
2019-01-13T17:51:22.914Z,8.17
2019-01-13T17:53:52.809Z,12.30
2019-01-13T17:56:23.129Z,12.17
2019-01-13T17:58:53.025Z,8.27
2019-01-13T18:01:25.213Z,11.50
2019-01-13T18:03:55.218Z,12.03
2019-01-13T18:06:26.813Z,11.70
2019-01-13T18:08:57.913Z,11.17
2019-01-13T18:11:28.825Z,14.37
2019-01-13T18:14:01.113Z,11.63
2019-01-13T18:16:31.566Z,14.00
2019-01-13T18:19:01.617Z,10.17
2019-01-13T18:21:32.733Z,16.03
2019-01-13T18:24:04.122Z,11.60
2019-01-13T18:26:34.517Z,13.77
2019-01-13T18:29:04.754Z,13.03
2019-01-13T18:31:34.575Z,15.27
2019-01-13T18:34:04.357Z,10.63
2019-01-13T18:36:35.306Z,12.87
2019-01-13T18:39:08.143Z,11.40
2019-01-13T18:41:38.037Z,9.97
2019-01-13T18:44:08.032Z,9.40
2019-01-13T18:46:37.940Z,6.43
2019-01-13T18:49:08.085Z,8.00
2019-01-13T18:51:38.523Z,13.30
2019-01-13T18:54:09.275Z,7.90
2019-01-13T18:56:45.399Z,10.17
2019-01-13T18:59:16.143Z,12.37
2019-01-13T19:01:52.365Z,13.23
2019-01-13T19:04:22.745Z,13.72
2019-01-13T19:06:52.753Z,10.60
2019-01-13T19:09:24.634Z,14.07
2019-01-13T19:11:54.259Z,9.50
2019-01-13T19:14:29.826Z,10.50
2019-01-13T19:17:03.471Z,10.07
2019-01-13T19:19:52.656Z,8.27
2019-01-13T19:22:22.953Z,6.33
2019-01-13T19:24:57.201Z,8.43
2019-01-13T19:27:27.104Z,7.60
2019-01-13T19:29:57.788Z,11.93
2019-01-13T19:32:28.041Z,11.57
2019-01-13T19:35:04.273Z,8.97
2019-01-13T19:37:29.689Z,11.33
2019-01-13T19:40:06.652Z,9.87
2019-01-13T19:42:38.237Z,10.43
2019-01-13T19:45:09.094Z,9.83
2019-01-13T19:47:39.183Z,9.23
2019-01-13T19:50:10.325Z,7.93
2019-01-13T19:52:39.911Z,7.70
2019-01-13T19:55:12.700Z,12.13
2019-01-13T19:57:43.158Z,8.13
2019-01-13T20:00:15.709Z,6.87
2019-01-13T20:02:45.581Z,8.13
2019-01-13T20:05:15.312Z,12.33
2019-01-13T20:07:45.242Z,6.87
2019-01-13T20:10:17.784Z,7.90
2019-01-13T20:12:48.281Z,8.38
2019-01-13T20:15:19.093Z,4.43
2019-01-13T20:17:49.565Z,7.80
2019-01-13T20:20:20.361Z,10.70
2019-01-13T20:22:51.351Z,8.80
2019-01-13T20:25:22.638Z,6.57
2019-01-13T20:27:52.898Z,6.33
2019-01-13T20:30:24.025Z,5.67
2019-01-13T20:32:53.662Z,7.42
2019-01-13T20:35:23.625Z,8.67
2019-01-13T20:37:54.367Z,5.77
2019-01-13T20:40:25.818Z,4.83
2019-01-13T20:42:55.666Z,4.87
2019-01-13T20:45:30.561Z,8.57
2019-01-13T20:48:00.522Z,9.50
2019-01-13T20:50:31.034Z,5.27
2019-01-13T20:53:01.021Z,4.77
2019-01-13T20:55:32.400Z,8.33
2019-01-13T20:58:03.482Z,8.53
2019-01-13T21:00:34.467Z,7.15
2019-01-13T21:03:06.116Z,6.00
2019-01-13T21:05:36.569Z,7.25
2019-01-13T21:08:06.865Z,5.03
2019-01-13T21:10:37.001Z,8.87
2019-01-13T21:13:07.065Z,6.67
2019-01-13T21:15:37.202Z,8.27
2019-01-13T21:18:07.214Z,7.22
2019-01-13T21:20:36.825Z,6.87
2019-01-13T21:23:07.399Z,5.20
2019-01-13T21:25:39.973Z,5.23
2019-01-13T21:28:09.753Z,5.13
2019-01-13T21:30:39.084Z,6.37
2019-01-13T21:33:09.638Z,6.70
2019-01-13T21:35:39.605Z,7.50
2019-01-13T21:38:09.515Z,4.57
2019-01-13T21:40:39.660Z,5.33
2019-01-13T21:43:10.476Z,7.40
2019-01-13T21:45:41.945Z,5.55
2019-01-13T21:48:12.276Z,5.23
2019-01-13T21:50:42.204Z,4.80
2019-01-13T21:53:12.671Z,5.30
2019-01-13T21:55:41.900Z,3.33
2019-01-13T21:58:12.553Z,4.03
2019-01-13T22:00:43.261Z,4.62
2019-01-13T22:03:14.044Z,3.93
2019-01-13T22:05:44.673Z,4.30
2019-01-13T22:08:14.405Z,4.90
2019-01-13T22:10:44.236Z,5.73
2019-01-13T22:13:14.524Z,3.15
2019-01-13T22:15:44.937Z,4.58
2019-01-13T22:18:14.281Z,2.40
2019-01-13T22:20:44.285Z,4.97
2019-01-13T22:23:14.836Z,2.73
2019-01-13T22:25:46.160Z,3.37
2019-01-13T22:28:16.082Z,2.87
2019-01-13T22:30:47.916Z,3.67
2019-01-13T22:33:18.452Z,4.77
2019-01-13T22:35:48.728Z,2.87
2019-01-13T22:38:19.917Z,3.03
2019-01-13T22:40:50.789Z,3.67
2019-01-13T22:43:21.277Z,2.73
2019-01-13T22:45:51.366Z,1.77
2019-01-13T22:48:22.138Z,2.40
2019-01-13T22:50:51.773Z,1.82
2019-01-13T22:53:21.455Z,1.30
2019-01-13T22:55:51.857Z,1.47
2019-01-13T22:58:21.503Z,1.82
2019-01-13T23:01:28.111Z,1.50
2019-01-13T23:04:00.079Z,1.60
2019-01-13T23:06:29.957Z,1.07
2019-01-13T23:09:00.606Z,1.87
2019-01-13T23:11:30.175Z,2.50
2019-01-13T23:14:00.706Z,0.67
2019-01-13T23:16:30.489Z,1.07
2019-01-13T23:19:01.173Z,1.67
2019-01-13T23:21:30.971Z,0.80
2019-01-13T23:24:01.417Z,0.90
2019-01-13T23:26:32.582Z,0.70
2019-01-13T23:29:02.763Z,0.63
2019-01-13T23:31:32.997Z,0.60
2019-01-13T23:34:02.908Z,0.70
2019-01-13T23:36:32.619Z,1.77
2019-01-13T23:39:04.094Z,0.40
2019-01-13T23:41:34.405Z,1.10
2019-01-13T23:44:05.170Z,0.67
2019-01-13T23:46:35.170Z,1.53
2019-01-13T23:49:05.621Z,0.50
2019-01-13T23:51:35.214Z,0.65
2019-01-13T23:54:06.273Z,0.40
2019-01-13T23:56:36.066Z,0.68
2019-01-13T23:59:06.257Z,0.80
